Time;durP1;ratioP1;P1;durP2;ratioP2;P2;SDS_P1;SDS_P2;PMS_P1;PMS_P2;Temp;Humidity;BMP_temperature;BMP_pressure;BME280_temperature;BME280_humidity;BME280_pressure;Samples;Min_cycle;Max_cycle;Signal;HPM_P1;HPM_P2
2023/07/12 00:00:16;;;;;;;1.45;1.20;;;;;;;;;;5053493;28;20036;-77
2023/07/12 00:02:41;;;;;;;1.38;1.15;;;;;;;;;;5053745;28;20043;-77
2023/07/12 00:05:08;;;;;;;1.58;0.93;;;;;;;;;;5052328;28;20480;-77
2023/07/12 00:07:33;;;;;;;1.27;1.02;;;;;;;;;;5035581;28;20431;-77
2023/07/12 00:09:59;;;;;;;2.08;1.25;;;;;;;;;;5035845;28;20043;-76
2023/07/12 00:12:24;;;;;;;1.50;1.08;;;;;;;;;;5053235;28;20112;-76
2023/07/12 00:14:49;;;;;;;1.88;1.00;;;;;;;;;;5053842;28;20029;-76
2023/07/12 00:17:15;;;;;;;1.00;1.00;;;;;;;;;;5053234;28;20068;-76
2023/07/12 00:19:40;;;;;;;1.27;0.90;;;;;;;;;;5053536;28;20036;-77
2023/07/12 00:22:08;;;;;;;1.95;1.05;;;;;;;;;;5053510;28;20032;-76
2023/07/12 00:24:33;;;;;;;1.33;0.93;;;;;;;;;;5052511;28;20106;-77
2023/07/12 00:27:00;;;;;;;1.60;1.10;;;;;;;;;;5053039;28;20064;-77
2023/07/12 00:29:25;;;;;;;2.83;1.10;;;;;;;;;;5035279;28;20126;-76
2023/07/12 00:31:51;;;;;;;1.52;1.08;;;;;;;;;;5035909;28;20468;-77
2023/07/12 00:34:16;;;;;;;0.95;0.90;;;;;;;;;;5035658;28;20146;-77
2023/07/12 00:36:42;;;;;;;0.90;0.90;;;;;;;;;;5053119;28;20029;-76
2023/07/12 00:39:09;;;;;;;2.08;1.25;;;;;;;;;;5035307;28;20112;-77
2023/07/12 00:41:46;;;;;;;1.08;0.98;;;;;;;;;;5052550;28;20025;-77
2023/07/12 00:44:18;;;;;;;1.10;1.00;;;;;;;;;;5053035;28;20032;-77
2023/07/12 00:46:49;;;;;;;1.00;0.80;;;;;;;;;;5035090;28;20025;-77
2023/07/12 00:49:14;;;;;;;3.17;0.85;;;;;;;;;;5035420;28;20032;-77
2023/07/12 00:51:52;;;;;;;0.98;0.90;;;;;;;;;;5052886;28;20408;-77
2023/07/12 00:54:20;;;;;;;1.30;0.77;;;;;;;;;;5053130;28;20124;-77
2023/07/12 00:56:46;;;;;;;1.13;0.90;;;;;;;;;;5035298;28;20116;-77
2023/07/12 00:59:17;;;;;;;3.67;1.05;;;;;;;;;;5052301;28;20131;-77
2023/07/12 01:01:44;;;;;;;1.10;0.90;;;;;;;;;;5053197;28;20028;-77
2023/07/12 01:04:13;;;;;;;1.52;0.88;;;;;;;;;;5053339;28;20379;-77
2023/07/12 01:06:39;;;;;;;1.15;1.00;;;;;;;;;;5056281;28;20082;-77
2023/07/12 01:09:11;;;;;;;2.05;0.90;;;;;;;;;;5038783;28;20033;-78
2023/07/12 01:11:37;;;;;;;1.27;1.17;;;;;;;;;;5055653;28;20048;-77
2023/07/12 01:14:09;;;;;;;2.25;1.17;;;;;;;;;;5055379;28;20780;-77
2023/07/12 01:16:35;;;;;;;1.10;1.00;;;;;;;;;;5055680;28;20021;-77
2023/07/12 01:19:00;;;;;;;2.15;1.02;;;;;;;;;;5056721;28;20163;-77
2023/07/12 01:21:27;;;;;;;2.45;0.80;;;;;;;;;;5056408;28;20040;-77
2023/07/12 01:23:53;;;;;;;1.15;0.90;;;;;;;;;;5056609;28;20031;-77
2023/07/12 01:26:25;;;;;;;1.55;0.95;;;;;;;;;;5038518;28;20131;-76
2023/07/12 01:28:54;;;;;;;1.17;0.95;;;;;;;;;;5038791;28;20510;-77
2023/07/12 01:31:20;;;;;;;1.55;1.00;;;;;;;;;;5054957;28;20566;-77
2023/07/12 01:33:45;;;;;;;1.10;1.00;;;;;;;;;;5056481;28;20108;-77
2023/07/12 01:36:11;;;;;;;1.10;1.00;;;;;;;;;;5056372;28;20117;-77
2023/07/12 01:38:36;;;;;;;1.67;1.10;;;;;;;;;;5055178;28;20107;-77
2023/07/12 01:41:02;;;;;;;1.85;1.00;;;;;;;;;;5056011;28;20108;-77
2023/07/12 01:43:28;;;;;;;1.38;1.10;;;;;;;;;;5038198;28;20100;-77
2023/07/12 01:45:53;;;;;;;0.80;0.80;;;;;;;;;;5055604;28;20028;-77
2023/07/12 01:48:19;;;;;;;1.23;0.90;;;;;;;;;;5056191;28;20112;-77
2023/07/12 01:50:44;;;;;;;1.55;0.90;;;;;;;;;;5037858;28;20033;-77
2023/07/12 01:53:09;;;;;;;1.73;1.20;;;;;;;;;;5055788;28;20037;-77
2023/07/12 01:55:35;;;;;;;1.38;0.90;;;;;;;;;;5038220;28;20112;-77
2023/07/12 01:58:00;;;;;;;1.25;1.05;;;;;;;;;;5054508;28;20525;-77
2023/07/12 02:00:26;;;;;;;1.60;1.05;;;;;;;;;;5055658;28;20499;-77
2023/07/12 02:02:51;;;;;;;1.05;0.88;;;;;;;;;;5037892;28;20377;-77
2023/07/12 02:05:18;;;;;;;2.55;1.05;;;;;;;;;;5037837;28;20102;-77
2023/07/12 02:07:44;;;;;;;2.65;1.10;;;;;;;;;;5054663;28;20033;-77
2023/07/12 02:10:15;;;;;;;1.25;0.90;;;;;;;;;;5037890;28;20036;-77
2023/07/12 02:12:41;;;;;;;2.10;1.00;;;;;;;;;;5055660;28;20036;-77
2023/07/12 02:15:07;;;;;;;1.20;0.90;;;;;;;;;;5037500;28;20021;-77
2023/07/12 02:17:33;;;;;;;1.15;1.05;;;;;;;;;;5054339;28;20044;-77
2023/07/12 02:19:58;;;;;;;1.23;1.00;;;;;;;;;;5054102;28;20075;-77
2023/07/12 02:22:24;;;;;;;1.30;0.90;;;;;;;;;;5037829;28;20387;-77
2023/07/12 02:24:50;;;;;;;1.65;1.10;;;;;;;;;;5021015;28;20532;-77
2023/07/12 02:27:15;;;;;;;1.20;1.10;;;;;;;;;;5037387;28;20415;-77
2023/07/12 02:29:40;;;;;;;2.22;1.05;;;;;;;;;;5037367;28;20446;-77
2023/07/12 02:32:06;;;;;;;2.30;1.17;;;;;;;;;;5037472;28;20468;-77
2023/07/12 02:34:32;;;;;;;2.67;1.20;;;;;;;;;;5054973;28;20114;-77
2023/07/12 02:36:57;;;;;;;1.67;0.80;;;;;;;;;;5054345;28;20029;-77
2023/07/12 02:39:22;;;;;;;1.60;1.05;;;;;;;;;;5054948;28;20556;-77
2023/07/12 02:41:48;;;;;;;3.47;1.10;;;;;;;;;;5054909;28;20024;-77
2023/07/12 02:44:13;;;;;;;4.53;1.25;;;;;;;;;;5037112;28;20395;-77
2023/07/12 02:46:38;;;;;;;1.08;0.98;;;;;;;;;;5055297;28;20028;-77
2023/07/12 02:49:04;;;;;;;1.98;1.08;;;;;;;;;;5055074;28;20025;-77
2023/07/12 02:51:29;;;;;;;3.20;1.00;;;;;;;;;;5036760;28;20445;-77
2023/07/12 02:53:55;;;;;;;2.97;1.25;;;;;;;;;;5020237;28;20476;-77
2023/07/12 02:56:20;;;;;;;1.73;1.08;;;;;;;;;;5020271;28;20509;-77
2023/07/12 02:58:45;;;;;;;1.85;0.98;;;;;;;;;;5054838;28;20029;-77
2023/07/12 03:01:11;;;;;;;1.33;1.02;;;;;;;;;;5054812;28;20463;-77
2023/07/12 03:03:36;;;;;;;2.08;1.10;;;;;;;;;;5054528;28;20052;-78
2023/07/12 03:06:09;;;;;;;1.60;1.17;;;;;;;;;;5054625;28;20087;-77
2023/07/12 03:08:35;;;;;;;2.65;1.25;;;;;;;;;;5053758;28;20476;-77
2023/07/12 03:11:02;;;;;;;1.60;1.20;;;;;;;;;;5055630;28;20037;-77
2023/07/12 03:13:28;;;;;;;2.60;1.38;;;;;;;;;;5054783;28;20056;-77
2023/07/12 03:15:53;;;;;;;1.23;0.88;;;;;;;;;;5037287;28;20053;-78
2023/07/12 03:18:18;;;;;;;2.90;1.10;;;;;;;;;;5037562;28;20025;-75
2023/07/12 03:20:44;;;;;;;2.22;1.02;;;;;;;;;;5037723;28;20039;-75
2023/07/12 03:23:09;;;;;;;2.40;1.13;;;;;;;;;;5054393;28;20586;-77
2023/07/12 03:25:35;;;;;;;3.33;1.30;;;;;;;;;;5055175;28;20029;-78
2023/07/12 03:28:00;;;;;;;5.50;1.45;;;;;;;;;;5036431;28;20087;-77
2023/07/12 03:30:26;;;;;;;3.72;1.10;;;;;;;;;;5036197;28;20399;-76
2023/07/12 03:32:52;;;;;;;3.30;1.17;;;;;;;;;;5054212;28;20029;-76
2023/07/12 03:35:17;;;;;;;2.25;1.10;;;;;;;;;;5053865;28;20060;-77
2023/07/12 03:37:43;;;;;;;4.03;1.20;;;;;;;;;;5036338;28;20086;-77
2023/07/12 03:40:09;;;;;;;2.38;0.98;;;;;;;;;;5036027;28;20067;-77
2023/07/12 03:42:34;;;;;;;1.45;1.27;;;;;;;;;;5052881;28;20132;-77
2023/07/12 03:45:00;;;;;;;1.60;1.13;;;;;;;;;;5052867;28;20060;-77
2023/07/12 03:47:26;;;;;;;1.20;1.10;;;;;;;;;;5052581;28;20396;-77
2023/07/12 03:49:51;;;;;;;2.55;1.20;;;;;;;;;;5052487;28;20108;-77
2023/07/12 03:52:16;;;;;;;1.40;1.10;;;;;;;;;;5035940;28;20033;-77
2023/07/12 03:54:42;;;;;;;2.88;1.30;;;;;;;;;;5035711;28;20040;-77
2023/07/12 03:57:07;;;;;;;2.08;1.15;;;;;;;;;;5035567;28;20089;-77
2023/07/12 03:59:33;;;;;;;1.40;1.02;;;;;;;;;;5052207;28;20032;-77
2023/07/12 04:01:58;;;;;;;1.73;1.00;;;;;;;;;;5035513;28;20032;-77
2023/07/12 04:04:23;;;;;;;1.65;1.00;;;;;;;;;;5053840;28;20044;-77
2023/07/12 04:06:50;;;;;;;1.02;0.93;;;;;;;;;;5053980;28;20036;-77
2023/07/12 04:09:15;;;;;;;2.28;1.20;;;;;;;;;;5053124;28;20021;-77
2023/07/12 04:11:41;;;;;;;2.35;1.20;;;;;;;;;;5053804;28;20036;-77
2023/07/12 04:14:07;;;;;;;1.83;1.20;;;;;;;;;;5053475;28;20396;-77
2023/07/12 04:16:32;;;;;;;1.10;1.00;;;;;;;;;;5036535;28;20128;-76
2023/07/12 04:18:58;;;;;;;1.85;1.33;;;;;;;;;;5036489;28;20028;-76
2023/07/12 04:21:24;;;;;;;2.00;1.48;;;;;;;;;;5036508;28;20021;-76
2023/07/12 04:23:50;;;;;;;1.52;1.00;;;;;;;;;;5054440;28;20093;-78
2023/07/12 04:26:17;;;;;;;2.25;1.17;;;;;;;;;;5048804;28;20065;-78
2023/07/12 04:28:46;;;;;;;1.75;1.20;;;;;;;;;;5048859;28;20021;-79
2023/07/12 04:31:12;;;;;;;1.08;0.98;;;;;;;;;;5048348;28;20025;-77
2023/07/12 04:33:37;;;;;;;2.63;1.50;;;;;;;;;;5048728;28;20112;-75
2023/07/12 04:36:07;;;;;;;2.80;1.55;;;;;;;;;;5033399;28;20056;-75
2023/07/12 04:38:33;;;;;;;1.73;1.20;;;;;;;;;;5048917;28;20053;-75
2023/07/12 04:40:59;;;;;;;2.95;1.30;;;;;;;;;;5034058;28;20021;-75
2023/07/12 04:43:25;;;;;;;2.17;1.33;;;;;;;;;;5035927;28;20037;-77
2023/07/12 04:45:50;;;;;;;2.70;1.63;;;;;;;;;;5052877;28;20041;-75
2023/07/12 04:48:15;;;;;;;2.53;1.40;;;;;;;;;;5037156;28;20052;-75
2023/07/12 04:50:41;;;;;;;2.70;1.48;;;;;;;;;;5052950;28;20033;-75
2023/07/12 04:53:07;;;;;;;3.92;1.70;;;;;;;;;;5052319;28;20021;-75
2023/07/12 04:55:32;;;;;;;2.97;1.50;;;;;;;;;;5052398;28;20030;-75
2023/07/12 04:57:58;;;;;;;2.42;1.27;;;;;;;;;;5035508;28;20041;-75
2023/07/12 05:00:24;;;;;;;4.75;2.15;;;;;;;;;;5037435;28;20060;-78
2023/07/12 05:02:50;;;;;;;6.80;2.05;;;;;;;;;;5035665;28;20029;-80
2023/07/12 05:05:16;;;;;;;11.93;2.38;;;;;;;;;;5052114;28;20052;-79
2023/07/12 05:07:42;;;;;;;5.55;2.72;;;;;;;;;;5035424;28;20104;-78
2023/07/12 05:10:09;;;;;;;31.92;7.43;;;;;;;;;;5052488;28;20040;-79
2023/07/12 05:12:35;;;;;;;13.65;3.45;;;;;;;;;;5052279;28;20083;-79
2023/07/12 05:15:01;;;;;;;6.57;2.90;;;;;;;;;;5052083;28;20113;-79
2023/07/12 05:17:27;;;;;;;5.07;2.95;;;;;;;;;;5051922;28;20440;-79
2023/07/12 05:19:53;;;;;;;4.97;2.70;;;;;;;;;;5036685;28;20044;-79
2023/07/12 05:22:19;;;;;;;5.95;2.50;;;;;;;;;;5052427;28;20132;-79
2023/07/12 05:24:44;;;;;;;5.03;2.58;;;;;;;;;;5052083;28;20033;-79
2023/07/12 05:27:10;;;;;;;5.45;2.10;;;;;;;;;;5049153;28;20053;-79
2023/07/12 05:29:35;;;;;;;5.68;3.08;;;;;;;;;;5056390;28;20143;-79
2023/07/12 05:32:00;;;;;;;5.60;2.83;;;;;;;;;;5056440;28;20124;-79
2023/07/12 05:34:26;;;;;;;6.32;2.70;;;;;;;;;;5038390;28;20047;-80
2023/07/12 05:36:51;;;;;;;6.75;3.08;;;;;;;;;;5056463;28;20056;-79
2023/07/12 05:39:17;;;;;;;5.53;3.03;;;;;;;;;;5056122;28;20395;-78
2023/07/12 05:41:43;;;;;;;8.70;3.30;;;;;;;;;;5038463;28;20067;-79
2023/07/12 05:44:08;;;;;;;9.10;3.25;;;;;;;;;;5055979;28;20430;-79
2023/07/12 05:46:33;;;;;;;6.28;3.13;;;;;;;;;;5021520;28;20033;-79
2023/07/12 05:48:59;;;;;;;8.02;3.53;;;;;;;;;;5056187;28;20025;-79
2023/07/12 05:51:24;;;;;;;9.60;3.20;;;;;;;;;;5037042;28;20059;-79
2023/07/12 05:53:50;;;;;;;7.25;3.17;;;;;;;;;;5037434;28;20024;-79
2023/07/12 05:56:16;;;;;;;6.13;2.92;;;;;;;;;;5038181;28;20452;-79
2023/07/12 05:58:41;;;;;;;7.20;2.85;;;;;;;;;;5055956;28;20056;-78
2023/07/12 06:01:07;;;;;;;7.07;3.08;;;;;;;;;;5055907;28;20482;-78
2023/07/12 06:03:33;;;;;;;9.90;3.70;;;;;;;;;;5021182;28;20567;-79
2023/07/12 06:05:59;;;;;;;12.63;3.42;;;;;;;;;;5054428;28;20477;-79
2023/07/12 06:08:25;;;;;;;4.72;2.63;;;;;;;;;;5037696;28;20045;-79
2023/07/12 06:10:51;;;;;;;5.40;2.90;;;;;;;;;;5054662;28;20032;-80
2023/07/12 06:13:16;;;;;;;8.27;2.90;;;;;;;;;;5037843;28;20036;-80
2023/07/12 06:15:42;;;;;;;9.27;3.30;;;;;;;;;;5055391;28;20033;-80
2023/07/12 06:18:07;;;;;;;10.05;3.80;;;;;;;;;;5021023;28;20032;-81
2023/07/12 06:20:33;;;;;;;9.02;3.30;;;;;;;;;;5037775;28;20032;-80
2023/07/12 06:22:58;;;;;;;11.18;3.17;;;;;;;;;;5020864;28;20036;-79
2023/07/12 06:25:24;;;;;;;10.50;3.35;;;;;;;;;;5037568;28;20047;-80
2023/07/12 06:27:50;;;;;;;6.82;3.42;;;;;;;;;;5037120;28;20049;-80
2023/07/12 06:30:18;;;;;;;10.88;3.38;;;;;;;;;;5055015;28;20032;-79
2023/07/12 06:32:44;;;;;;;10.63;3.20;;;;;;;;;;5055049;28;20387;-79
2023/07/12 06:35:10;;;;;;;8.02;3.15;;;;;;;;;;5053850;28;20099;-79
2023/07/12 06:37:35;;;;;;;6.35;3.28;;;;;;;;;;5055022;28;20029;-80
2023/07/12 06:40:01;;;;;;;7.95;3.17;;;;;;;;;;5055709;28;20029;-80
2023/07/12 06:42:26;;;;;;;18.30;3.55;;;;;;;;;;5038302;28;20378;-83
2023/07/12 06:44:52;;;;;;;8.13;2.90;;;;;;;;;;5037065;28;20033;-80
2023/07/12 06:47:17;;;;;;;8.27;2.92;;;;;;;;;;5055025;28;20479;-80
2023/07/12 06:49:43;;;;;;;8.65;2.95;;;;;;;;;;5037146;28;20090;-80
2023/07/12 06:52:10;;;;;;;10.50;3.50;;;;;;;;;;5036579;28;20162;-80
2023/07/12 06:54:35;;;;;;;10.07;3.40;;;;;;;;;;5053420;28;20029;-80
2023/07/12 06:57:01;;;;;;;9.75;3.20;;;;;;;;;;5054805;28;20085;-79
2023/07/12 06:59:26;;;;;;;9.25;2.72;;;;;;;;;;5036705;28;20041;-77
2023/07/12 07:01:52;;;;;;;7.53;2.03;;;;;;;;;;5054858;28;20115;-77
2023/07/12 07:04:18;;;;;;;11.75;2.60;;;;;;;;;;5036296;28;20032;-76
2023/07/12 07:06:44;;;;;;;4.22;1.90;;;;;;;;;;5020209;28;20025;-77
2023/07/12 07:09:10;;;;;;;7.57;2.25;;;;;;;;;;5037478;28;20078;-77
2023/07/12 07:11:35;;;;;;;3.65;1.55;;;;;;;;;;5036870;28;20083;-77
2023/07/12 07:14:01;;;;;;;10.52;2.05;;;;;;;;;;5036342;28;20502;-78
2023/07/12 07:16:27;;;;;;;3.85;1.65;;;;;;;;;;5036366;28;20041;-78
2023/07/12 07:18:52;;;;;;;3.78;1.75;;;;;;;;;;5054195;28;20028;-77
2023/07/12 07:21:18;;;;;;;4.85;2.30;;;;;;;;;;5036215;28;20024;-78
2023/07/12 07:23:43;;;;;;;4.32;1.98;;;;;;;;;;5052948;28;20036;-78
2023/07/12 07:26:10;;;;;;;5.97;2.00;;;;;;;;;;5052697;28;20049;-77
2023/07/12 07:28:37;;;;;;;4.43;2.10;;;;;;;;;;5052905;28;20368;-78
2023/07/12 07:31:03;;;;;;;4.72;1.95;;;;;;;;;;5036190;28;20044;-77
2023/07/12 07:33:29;;;;;;;5.30;1.67;;;;;;;;;;5053947;28;20380;-77
2023/07/12 07:35:55;;;;;;;3.25;1.63;;;;;;;;;;5053024;28;20029;-77
2023/07/12 07:38:26;;;;;;;2.95;1.65;;;;;;;;;;5052727;28;20040;-77
2023/07/12 07:40:52;;;;;;;5.32;2.05;;;;;;;;;;5052867;28;20017;-77
2023/07/12 07:43:18;;;;;;;7.15;2.10;;;;;;;;;;5054043;28;20106;-78
2023/07/12 07:45:43;;;;;;;4.80;1.90;;;;;;;;;;5036304;28;20064;-75
2023/07/12 07:48:10;;;;;;;3.97;1.67;;;;;;;;;;5053995;28;20040;-75
2023/07/12 07:50:36;;;;;;;3.17;1.50;;;;;;;;;;5036402;28;20108;-75
2023/07/12 07:53:01;;;;;;;2.67;1.50;;;;;;;;;;5035890;28;20135;-75
2023/07/12 07:55:27;;;;;;;3.97;1.73;;;;;;;;;;5052777;28;20035;-76
2023/07/12 07:57:52;;;;;;;7.05;1.60;;;;;;;;;;5036319;28;20029;-74
2023/07/12 08:00:18;;;;;;;3.97;1.55;;;;;;;;;;5036122;28;20495;-75
2023/07/12 08:02:44;;;;;;;7.35;2.03;;;;;;;;;;5054101;28;20017;-74
2023/07/12 08:05:11;;;;;;;8.32;1.77;;;;;;;;;;5054025;28;20479;-75
2023/07/12 08:07:38;;;;;;;3.15;1.67;;;;;;;;;;5036032;28;20033;-77
2023/07/12 08:10:05;;;;;;;5.07;1.55;;;;;;;;;;5053881;28;20025;-75
2023/07/12 08:12:30;;;;;;;4.38;1.70;;;;;;;;;;5053981;28;20502;-77
2023/07/12 08:14:55;;;;;;;5.10;1.90;;;;;;;;;;5018314;28;20041;-76
2023/07/12 08:17:22;;;;;;;4.65;1.90;;;;;;;;;;5053197;28;20055;-75
2023/07/12 08:19:50;;;;;;;5.55;1.70;;;;;;;;;;5053432;28;20029;-75
2023/07/12 08:22:19;;;;;;;5.63;2.10;;;;;;;;;;5053841;28;20586;-75
2023/07/12 08:24:46;;;;;;;4.47;1.80;;;;;;;;;;5035530;28;20040;-75
2023/07/12 08:27:11;;;;;;;6.38;2.00;;;;;;;;;;5019016;28;20462;-76
2023/07/12 08:29:37;;;;;;;6.35;1.88;;;;;;;;;;5053431;28;20037;-77
2023/07/12 08:32:03;;;;;;;5.20;1.60;;;;;;;;;;5053604;28;20380;-76
2023/07/12 08:34:28;;;;;;;5.32;1.88;;;;;;;;;;5053555;28;20048;-76
2023/07/12 08:36:54;;;;;;;4.95;1.90;;;;;;;;;;5053454;28;20052;-76
2023/07/12 08:39:19;;;;;;;4.78;1.83;;;;;;;;;;5052182;28;20090;-76
2023/07/12 08:41:44;;;;;;;4.07;1.60;;;;;;;;;;5018878;28;20032;-75
2023/07/12 08:44:13;;;;;;;4.85;1.75;;;;;;;;;;5053883;28;20448;-75
2023/07/12 08:46:43;;;;;;;5.50;1.75;;;;;;;;;;5035152;28;20032;-76
2023/07/12 08:49:10;;;;;;;5.82;1.98;;;;;;;;;;5052390;28;20072;-76
2023/07/12 08:51:35;;;;;;;4.97;1.65;;;;;;;;;;5035341;28;20033;-76
2023/07/12 08:54:01;;;;;;;5.00;1.70;;;;;;;;;;5053273;28;20025;-76
2023/07/12 08:56:27;;;;;;;4.13;1.80;;;;;;;;;;5037095;28;20037;-77
2023/07/12 08:58:53;;;;;;;4.47;1.52;;;;;;;;;;5035449;28;20037;-76
2023/07/12 09:01:36;;;;;;;4.65;1.63;;;;;;;;;;5052902;28;20021;-76
2023/07/12 09:04:21;;;;;;;5.18;1.40;;;;;;;;;;5051749;28;20075;-76
2023/07/12 09:06:46;;;;;;;4.00;1.85;;;;;;;;;;5035161;28;20403;-76
2023/07/12 09:09:12;;;;;;;2.88;1.58;;;;;;;;;;5052901;28;20033;-77
2023/07/12 09:11:39;;;;;;;3.60;1.60;;;;;;;;;;5051835;28;20035;-76
2023/07/12 09:14:04;;;;;;;3.70;1.70;;;;;;;;;;5052831;28;20071;-77
2023/07/12 09:16:34;;;;;;;4.22;1.70;;;;;;;;;;5034813;28;20041;-76
2023/07/12 09:19:28;;;;;;;3.50;1.48;;;;;;;;;;5052120;28;20025;-76
2023/07/12 09:21:56;;;;;;;4.95;1.80;;;;;;;;;;5032441;28;20037;-76
2023/07/12 09:24:31;;;;;;;2.75;1.50;;;;;;;;;;5053734;28;20408;-76
2023/07/12 09:27:04;;;;;;;3.88;1.55;;;;;;;;;;5040967;28;20045;-75
2023/07/12 09:29:31;;;;;;;6.57;1.55;;;;;;;;;;5060747;28;20037;-77
2023/07/12 09:31:59;;;;;;;6.65;1.92;;;;;;;;;;5056237;28;20028;-75
2023/07/12 09:34:34;;;;;;;6.20;1.60;;;;;;;;;;5055798;28;20475;-76
2023/07/12 09:37:00;;;;;;;4.45;1.80;;;;;;;;;;5056598;28;20033;-76
2023/07/12 09:39:26;;;;;;;3.80;1.70;;;;;;;;;;5039804;28;20032;-76
2023/07/12 09:41:56;;;;;;;5.03;1.77;;;;;;;;;;5055923;28;20017;-75
2023/07/12 09:44:21;;;;;;;5.15;1.70;;;;;;;;;;5057807;28;20052;-75
2023/07/12 09:46:53;;;;;;;4.78;1.70;;;;;;;;;;5059240;28;20519;-75
2023/07/12 09:49:23;;;;;;;5.88;1.60;;;;;;;;;;5056686;28;20029;-75
2023/07/12 09:51:56;;;;;;;8.57;1.85;;;;;;;;;;5039493;28;20083;-75
2023/07/12 09:54:27;;;;;;;4.00;1.50;;;;;;;;;;5055626;28;20033;-76
2023/07/12 09:57:01;;;;;;;5.60;1.75;;;;;;;;;;5038545;28;20438;-75
2023/07/12 09:59:48;;;;;;;3.70;1.55;;;;;;;;;;5038350;28;20505;-75
2023/07/12 10:02:25;;;;;;;5.53;1.77;;;;;;;;;;5056586;28;20029;-76
2023/07/12 10:04:58;;;;;;;6.38;1.50;;;;;;;;;;5038280;28;20434;-76
2023/07/12 10:07:42;;;;;;;3.33;1.60;;;;;;;;;;5037919;28;20472;-75
2023/07/12 10:10:20;;;;;;;5.28;1.48;;;;;;;;;;5038067;28;20246;-75
2023/07/12 10:12:55;;;;;;;3.10;1.45;;;;;;;;;;5056380;28;20349;-74
2023/07/12 10:15:33;;;;;;;6.85;2.05;;;;;;;;;;5055068;28;20024;-75
2023/07/12 10:17:58;;;;;;;6.25;2.10;;;;;;;;;;5054469;28;20031;-75
2023/07/12 10:20:24;;;;;;;12.23;2.00;;;;;;;;;;5037922;28;20048;-75
2023/07/12 10:22:52;;;;;;;3.30;1.67;;;;;;;;;;5054709;28;20530;-75
2023/07/12 10:25:21;;;;;;;6.47;2.30;;;;;;;;;;5055831;28;20502;-78
2023/07/12 10:27:55;;;;;;;3.08;1.65;;;;;;;;;;5053846;28;20052;-75
2023/07/12 10:30:24;;;;;;;5.10;2.00;;;;;;;;;;5054448;28;20086;-76
2023/07/12 10:33:18;;;;;;;4.65;1.80;;;;;;;;;;5054598;28;20029;-76
2023/07/12 10:35:47;;;;;;;;;;;;;;;;;;5038290;28;20024;-76
2023/07/12 10:38:15;;;;;;;4.80;1.65;;;;;;;;;;5055591;28;20275;-76
2023/07/12 10:40:47;;;;;;;4.45;1.80;;;;;;;;;;5056727;28;20039;-75
2023/07/12 10:43:41;;;;;;;4.43;1.60;;;;;;;;;;5056254;28;20028;-76
2023/07/12 10:46:10;;;;;;;4.55;1.65;;;;;;;;;;5037720;28;20037;-76
2023/07/12 10:48:38;;;;;;;3.67;1.80;;;;;;;;;;5055180;28;20044;-76
2023/07/12 10:51:28;;;;;;;2.28;1.33;;;;;;;;;;5055195;28;20488;-75
2023/07/12 10:53:55;;;;;;;3.13;1.60;;;;;;;;;;5055790;28;20029;-76
2023/07/12 10:56:32;;;;;;;2.70;1.20;;;;;;;;;;5054713;28;20029;-76
2023/07/12 10:59:00;;;;;;;3.40;1.80;;;;;;;;;;5037098;28;20031;-75
2023/07/12 11:01:40;;;;;;;4.70;2.10;;;;;;;;;;5053508;28;20028;-75
2023/07/12 11:04:12;;;;;;;3.97;2.28;;;;;;;;;;5055258;28;20060;-76
2023/07/12 11:06:59;;;;;;;4.53;2.17;;;;;;;;;;5037265;28;20024;-78
2023/07/12 11:09:26;;;;;;;3.63;2.00;;;;;;;;;;5036863;28;20111;-75
2023/07/12 11:12:05;;;;;;;4.35;2.13;;;;;;;;;;5053990;28;20036;-79
2023/07/12 11:14:36;;;;;;;3.25;1.65;;;;;;;;;;5054023;28;20025;-75
2023/07/12 11:17:11;;;;;;;4.55;2.08;;;;;;;;;;5054614;28;20391;-76
2023/07/12 11:19:39;;;;;;;3.95;2.20;;;;;;;;;;5054372;28;20028;-75
2023/07/12 11:22:12;;;;;;;4.97;2.17;;;;;;;;;;5054397;28;20028;-75
2023/07/12 11:25:10;;;;;;;3.72;2.00;;;;;;;;;;5053301;28;20028;-74
2023/07/12 11:27:45;;;;;;;7.75;2.15;;;;;;;;;;5010003;28;20048;-75
2023/07/12 11:30:20;;;;;;;7.25;2.10;;;;;;;;;;5054151;28;20495;-76
2023/07/12 11:32:46;;;;;;;6.68;2.10;;;;;;;;;;5036446;28;20029;-77
2023/07/12 11:35:19;;;;;;;5.47;2.17;;;;;;;;;;5054343;28;20029;-76
2023/07/12 11:37:48;;;;;;;4.13;2.30;;;;;;;;;;5036732;28;20052;-76
2023/07/12 11:40:20;;;;;;;5.60;2.53;;;;;;;;;;5056456;28;20028;-76
2023/07/12 11:42:46;;;;;;;5.75;2.35;;;;;;;;;;5059138;28;20025;-75
2023/07/12 11:45:15;;;;;;;4.47;2.10;;;;;;;;;;5051729;28;20021;-76
2023/07/12 11:47:46;;;;;;;4.70;2.03;;;;;;;;;;5057270;28;20379;-76
2023/07/12 11:50:38;;;;;;;4.43;2.30;;;;;;;;;;5063576;28;20419;-76
2023/07/12 11:53:03;;;;;;;3.72;2.00;;;;;;;;;;5051698;28;20051;-75
2023/07/12 11:55:30;;;;;;;4.72;2.00;;;;;;;;;;5052147;28;20442;-75
2023/07/12 11:57:55;;;;;;;4.07;1.88;;;;;;;;;;5053978;28;20029;-76
2023/07/12 12:00:30;;;;;;;3.28;1.58;;;;;;;;;;5053733;28;20385;-76
2023/07/12 12:02:59;;;;;;;4.63;1.80;;;;;;;;;;5052234;28;20027;-76
2023/07/12 12:05:31;;;;;;;4.40;1.77;;;;;;;;;;5052260;28;20024;-76
2023/07/12 12:07:57;;;;;;;2.75;1.55;;;;;;;;;;5053436;28;20064;-74
2023/07/12 12:10:28;;;;;;;3.60;1.70;;;;;;;;;;5035564;28;20036;-76
2023/07/12 12:12:54;;;;;;;6.32;1.80;;;;;;;;;;5052688;28;20447;-74
2023/07/12 12:15:34;;;;;;;5.03;1.70;;;;;;;;;;5035779;28;20074;-74
2023/07/12 12:18:14;;;;;;;7.60;1.50;;;;;;;;;;5053615;28;20446;-75
2023/07/12 12:20:55;;;;;;;2.65;1.50;;;;;;;;;;5035399;28;20471;-76
2023/07/12 12:23:27;;;;;;;5.07;1.60;;;;;;;;;;5035865;28;20035;-74
2023/07/12 12:25:53;;;;;;;8.77;1.80;;;;;;;;;;5052267;28;20037;-74
2023/07/12 12:28:30;;;;;;;4.35;1.83;;;;;;;;;;5053045;28;20049;-75
2023/07/12 12:30:57;;;;;;;5.07;2.10;;;;;;;;;;5051957;28;20047;-77
2023/07/12 12:33:24;;;;;;;5.90;1.60;;;;;;;;;;5051993;28;20035;-75
2023/07/12 12:35:57;;;;;;;2.83;1.38;;;;;;;;;;5035626;28;20036;-76
2023/07/12 12:38:32;;;;;;;4.88;1.65;;;;;;;;;;5035304;28;20074;-74
2023/07/12 12:41:13;;;;;;;3.35;1.38;;;;;;;;;;5035591;28;20029;-75
2023/07/12 12:43:59;;;;;;;2.25;1.30;;;;;;;;;;5053344;28;20029;-75
2023/07/12 12:46:24;;;;;;;5.70;1.40;;;;;;;;;;5053351;28;20103;-75
2023/07/12 12:48:51;;;;;;;3.42;1.60;;;;;;;;;;5035761;28;20471;-75
2023/07/12 12:51:17;;;;;;;2.42;1.30;;;;;;;;;;5051940;28;20078;-75
2023/07/12 12:53:43;;;;;;;5.75;1.40;;;;;;;;;;5052819;28;20037;-76
2023/07/12 12:56:11;;;;;;;4.35;1.30;;;;;;;;;;5053001;28;20041;-75
2023/07/12 12:58:37;;;;;;;4.95;1.25;;;;;;;;;;5051731;28;20100;-74
2023/07/12 13:01:02;;;;;;;3.58;1.30;;;;;;;;;;5052557;28;20571;-74
2023/07/12 13:03:28;;;;;;;6.25;1.60;;;;;;;;;;5039005;28;20086;-75
2023/07/12 13:05:53;;;;;;;4.10;1.50;;;;;;;;;;5056557;28;20112;-75
2023/07/12 13:08:19;;;;;;;3.08;1.40;;;;;;;;;;5021939;28;20028;-75
2023/07/12 13:10:44;;;;;;;2.95;1.40;;;;;;;;;;5039545;28;20082;-76
2023/07/12 13:13:20;;;;;;;3.63;1.50;;;;;;;;;;5038491;28;20029;-75
2023/07/12 13:15:46;;;;;;;2.13;1.20;;;;;;;;;;5056671;28;20032;-75
2023/07/12 13:18:13;;;;;;;3.38;1.20;;;;;;;;;;5038843;28;20029;-75
2023/07/12 13:20:39;;;;;;;3.83;1.50;;;;;;;;;;5038617;28;20026;-75
2023/07/12 13:23:05;;;;;;;4.47;1.20;;;;;;;;;;5055505;28;20024;-75
2023/07/12 13:25:30;;;;;;;3.47;1.27;;;;;;;;;;5038864;28;20040;-75
2023/07/12 13:27:56;;;;;;;2.67;1.25;;;;;;;;;;5038207;28;20086;-75
2023/07/12 13:30:25;;;;;;;1.77;1.23;;;;;;;;;;5056269;28;20079;-76
2023/07/12 13:32:51;;;;;;;1.48;1.10;;;;;;;;;;5038547;28;20086;-75
2023/07/12 13:35:18;;;;;;;4.78;1.45;;;;;;;;;;5038912;28;20037;-75
2023/07/12 13:37:44;;;;;;;3.85;1.25;;;;;;;;;;5038594;28;20035;-75
2023/07/12 13:40:14;;;;;;;4.20;1.38;;;;;;;;;;5056085;28;20033;-75
2023/07/12 13:42:41;;;;;;;3.45;1.30;;;;;;;;;;5055255;28;20401;-76
2023/07/12 13:45:09;;;;;;;2.10;1.13;;;;;;;;;;5056251;28;20082;-75
2023/07/12 13:47:35;;;;;;;4.57;1.30;;;;;;;;;;5056516;28;20107;-75
2023/07/12 13:50:02;;;;;;;2.13;1.15;;;;;;;;;;5037973;28;20053;-76
2023/07/12 13:52:28;;;;;;;4.05;1.55;;;;;;;;;;5037935;28;20037;-76
2023/07/12 13:54:53;;;;;;;2.45;1.02;;;;;;;;;;5037871;28;20080;-76
2023/07/12 13:57:24;;;;;;;6.72;1.10;;;;;;;;;;5054837;28;20031;-75
2023/07/12 13:59:50;;;;;;;3.15;1.27;;;;;;;;;;5054878;28;20032;-76
2023/07/12 14:02:24;;;;;;;3.38;1.20;;;;;;;;;;5054827;28;20025;-75
2023/07/12 14:04:55;;;;;;;1.50;1.17;;;;;;;;;;5037763;28;20031;-75
2023/07/12 14:07:24;;;;;;;2.50;0.90;;;;;;;;;;5054730;28;20029;-75
2023/07/12 14:09:54;;;;;;;3.05;1.10;;;;;;;;;;5037727;28;20467;-75
2023/07/12 14:12:23;;;;;;;1.10;0.90;;;;;;;;;;5054995;28;20032;-75
2023/07/12 14:14:50;;;;;;;1.52;1.00;;;;;;;;;;5037200;28;20090;-75
2023/07/12 14:17:18;;;;;;;3.88;1.20;;;;;;;;;;5055387;28;20490;-75
2023/07/12 14:19:46;;;;;;;1.52;1.05;;;;;;;;;;5055964;28;20456;-75
2023/07/12 14:22:16;;;;;;;2.80;1.10;;;;;;;;;;5037371;28;20475;-75
2023/07/12 14:24:43;;;;;;;2.00;1.00;;;;;;;;;;5055524;28;20036;-75
2023/07/12 14:27:19;;;;;;;1.30;0.90;;;;;;;;;;5037267;28;20076;-75
2023/07/12 14:29:45;;;;;;;1.45;0.90;;;;;;;;;;5020923;28;20029;-75
2023/07/12 14:32:25;;;;;;;2.80;1.10;;;;;;;;;;5054196;28;20029;-75
2023/07/12 14:34:51;;;;;;;1.65;0.85;;;;;;;;;;5054525;28;20456;-75
2023/07/12 14:37:18;;;;;;;2.38;1.20;;;;;;;;;;5055032;28;20043;-75
2023/07/12 14:39:44;;;;;;;1.25;0.90;;;;;;;;;;5053775;28;20499;-75
2023/07/12 14:42:14;;;;;;;0.82;0.73;;;;;;;;;;5055217;28;20030;-75
2023/07/12 14:44:41;;;;;;;0.98;0.90;;;;;;;;;;5037174;28;20561;-75
2023/07/12 14:47:09;;;;;;;1.17;0.90;;;;;;;;;;5037310;28;20035;-75